sensor_id;sensor_type;location;lat;lon;timestamp;temperature;humidity
25468;DHT22;13384;24.794;110.498;2022-12-07T00:00:13;11.70;94.60
25468;DHT22;13384;24.794;110.498;2022-12-07T00:02:44;11.70;94.60
25468;DHT22;13384;24.794;110.498;2022-12-07T00:05:16;11.70;94.50
25468;DHT22;13384;24.794;110.498;2022-12-07T00:07:46;11.70;94.60
25468;DHT22;13384;24.794;110.498;2022-12-07T00:10:30;11.70;94.50
25468;DHT22;13384;24.794;110.498;2022-12-07T00:13:00;11.70;94.50
25468;DHT22;13384;24.794;110.498;2022-12-07T00:15:33;11.70;94.50
25468;DHT22;13384;24.794;110.498;2022-12-07T00:18:04;11.60;94.30
25468;DHT22;13384;24.794;110.498;2022-12-07T00:20:36;11.60;94.50
25468;DHT22;13384;24.794;110.498;2022-12-07T00:23:07;11.70;94.50
25468;DHT22;13384;24.794;110.498;2022-12-07T00:25:37;11.70;94.40
25468;DHT22;13384;24.794;110.498;2022-12-07T00:28:07;11.70;94.40
25468;DHT22;13384;24.794;110.498;2022-12-07T00:30:40;11.70;94.40
25468;DHT22;13384;24.794;110.498;2022-12-07T00:33:11;11.70;94.30
25468;DHT22;13384;24.794;110.498;2022-12-07T00:35:41;11.60;94.40
25468;DHT22;13384;24.794;110.498;2022-12-07T00:38:11;11.60;94.30
25468;DHT22;13384;24.794;110.498;2022-12-07T00:40:42;11.50;94.60
25468;DHT22;13384;24.794;110.498;2022-12-07T00:43:13;11.50;94.20
25468;DHT22;13384;24.794;110.498;2022-12-07T00:45:45;11.50;94.70
25468;DHT22;13384;24.794;110.498;2022-12-07T00:48:15;11.50;94.70
25468;DHT22;13384;24.794;110.498;2022-12-07T00:50:46;11.50;94.40
25468;DHT22;13384;24.794;110.498;2022-12-07T00:53:17;11.60;94.70
25468;DHT22;13384;24.794;110.498;2022-12-07T00:55:48;11.60;94.60
25468;DHT22;13384;24.794;110.498;2022-12-07T00:58:19;11.60;94.50
25468;DHT22;13384;24.794;110.498;2022-12-07T01:00:50;11.50;94.40
25468;DHT22;13384;24.794;110.498;2022-12-07T01:03:20;11.50;94.40
25468;DHT22;13384;24.794;110.498;2022-12-07T01:05:53;11.40;94.60
25468;DHT22;13384;24.794;110.498;2022-12-07T01:08:26;11.50;94.70
25468;DHT22;13384;24.794;110.498;2022-12-07T01:11:03;11.60;94.70
25468;DHT22;13384;24.794;110.498;2022-12-07T01:13:35;11.60;94.70
25468;DHT22;13384;24.794;110.498;2022-12-07T01:16:11;11.70;94.60
25468;DHT22;13384;24.794;110.498;2022-12-07T01:18:45;11.60;94.70
25468;DHT22;13384;24.794;110.498;2022-12-07T01:21:24;11.60;94.30
25468;DHT22;13384;24.794;110.498;2022-12-07T01:23:56;11.60;94.70
25468;DHT22;13384;24.794;110.498;2022-12-07T01:26:27;11.70;94.50
25468;DHT22;13384;24.794;110.498;2022-12-07T01:28:58;11.70;94.70
25468;DHT22;13384;24.794;110.498;2022-12-07T01:31:30;11.70;94.90
25468;DHT22;13384;24.794;110.498;2022-12-07T01:34:01;11.70;94.50
25468;DHT22;13384;24.794;110.498;2022-12-07T01:36:36;11.70;94.30
25468;DHT22;13384;24.794;110.498;2022-12-07T01:39:10;11.70;94.70
25468;DHT22;13384;24.794;110.498;2022-12-07T01:41:41;11.70;94.50
25468;DHT22;13384;24.794;110.498;2022-12-07T01:44:30;11.70;94.60
25468;DHT22;13384;24.794;110.498;2022-12-07T01:47:04;11.70;94.40
25468;DHT22;13384;24.794;110.498;2022-12-07T01:49:44;11.70;94.50
25468;DHT22;13384;24.794;110.498;2022-12-07T01:52:25;11.70;94.50
25468;DHT22;13384;24.794;110.498;2022-12-07T01:55:00;11.80;94.50
25468;DHT22;13384;24.794;110.498;2022-12-07T01:57:31;11.80;94.50
25468;DHT22;13384;24.794;110.498;2022-12-07T02:00:05;11.80;94.40
25468;DHT22;13384;24.794;110.498;2022-12-07T02:05:24;11.60;94.10
25468;DHT22;13384;24.794;110.498;2022-12-07T02:07:58;11.60;94.60
25468;DHT22;13384;24.794;110.498;2022-12-07T02:10:49;11.70;94.60
25468;DHT22;13384;24.794;110.498;2022-12-07T02:13:29;11.70;94.50
25468;DHT22;13384;24.794;110.498;2022-12-07T02:19:08;11.70;94.30
25468;DHT22;13384;24.794;110.498;2022-12-07T02:31:28;11.70;94.30
25468;DHT22;13384;24.794;110.498;2022-12-07T02:34:03;11.70;94.50
25468;DHT22;13384;24.794;110.498;2022-12-07T02:36:41;11.80;94.50
25468;DHT22;13384;24.794;110.498;2022-12-07T02:41:48;11.80;94.30
25468;DHT22;13384;24.794;110.498;2022-12-07T02:44:24;11.80;94.50
25468;DHT22;13384;24.794;110.498;2022-12-07T02:47:06;11.80;94.30
25468;DHT22;13384;24.794;110.498;2022-12-07T02:49:58;11.80;94.50
25468;DHT22;13384;24.794;110.498;2022-12-07T02:52:30;11.80;94.40
25468;DHT22;13384;24.794;110.498;2022-12-07T02:55:01;11.80;94.30
25468;DHT22;13384;24.794;110.498;2022-12-07T03:04:38;11.90;94.50
25468;DHT22;13384;24.794;110.498;2022-12-07T03:07:25;11.80;94.30
25468;DHT22;13384;24.794;110.498;2022-12-07T03:15:40;11.90;94.60
25468;DHT22;13384;24.794;110.498;2022-12-07T03:18:14;11.90;94.40
25468;DHT22;13384;24.794;110.498;2022-12-07T03:20:48;11.90;94.30
25468;DHT22;13384;24.794;110.498;2022-12-07T03:23:21;12.00;94.40
25468;DHT22;13384;24.794;110.498;2022-12-07T03:25:57;12.00;94.50
25468;DHT22;13384;24.794;110.498;2022-12-07T03:28:33;12.00;94.30
25468;DHT22;13384;24.794;110.498;2022-12-07T03:31:09;12.00;94.30
25468;DHT22;13384;24.794;110.498;2022-12-07T03:36:36;12.10;94.20
25468;DHT22;13384;24.794;110.498;2022-12-07T03:41:59;12.10;94.20
25468;DHT22;13384;24.794;110.498;2022-12-07T03:44:33;12.10;94.20
25468;DHT22;13384;24.794;110.498;2022-12-07T03:47:16;12.10;94.20
25468;DHT22;13384;24.794;110.498;2022-12-07T03:52:47;12.10;94.10
25468;DHT22;13384;24.794;110.498;2022-12-07T03:55:31;12.10;94.20
25468;DHT22;13384;24.794;110.498;2022-12-07T03:58:09;12.10;94.10
25468;DHT22;13384;24.794;110.498;2022-12-07T04:00:41;12.10;94.10
25468;DHT22;13384;24.794;110.498;2022-12-07T04:03:12;12.10;94.10
25468;DHT22;13384;24.794;110.498;2022-12-07T04:05:43;12.10;94.10
25468;DHT22;13384;24.794;110.498;2022-12-07T04:08:15;12.10;94.10
25468;DHT22;13384;24.794;110.498;2022-12-07T04:10:45;12.10;94.20
25468;DHT22;13384;24.794;110.498;2022-12-07T04:13:16;12.10;94.10
25468;DHT22;13384;24.794;110.498;2022-12-07T04:16:08;12.10;94.10
25468;DHT22;13384;24.794;110.498;2022-12-07T04:18:39;12.10;94.10
25468;DHT22;13384;24.794;110.498;2022-12-07T04:21:09;12.20;94.00
25468;DHT22;13384;24.794;110.498;2022-12-07T04:23:40;12.20;94.00
25468;DHT22;13384;24.794;110.498;2022-12-07T04:26:10;12.20;93.90
25468;DHT22;13384;24.794;110.498;2022-12-07T04:28:40;12.20;93.90
25468;DHT22;13384;24.794;110.498;2022-12-07T04:31:11;12.20;94.00
25468;DHT22;13384;24.794;110.498;2022-12-07T04:33:42;12.20;94.00
25468;DHT22;13384;24.794;110.498;2022-12-07T04:36:12;12.20;93.90
25468;DHT22;13384;24.794;110.498;2022-12-07T04:39:04;12.20;93.90
25468;DHT22;13384;24.794;110.498;2022-12-07T04:41:35;12.20;94.00
25468;DHT22;13384;24.794;110.498;2022-12-07T04:44:05;12.20;94.00
25468;DHT22;13384;24.794;110.498;2022-12-07T04:46:37;12.20;94.00
25468;DHT22;13384;24.794;110.498;2022-12-07T04:49:08;12.20;94.00
25468;DHT22;13384;24.794;110.498;2022-12-07T04:51:53;12.20;94.10
25468;DHT22;13384;24.794;110.498;2022-12-07T04:54:23;12.20;94.10
25468;DHT22;13384;24.794;110.498;2022-12-07T04:56:57;12.20;94.00
25468;DHT22;13384;24.794;110.498;2022-12-07T04:59:27;12.20;94.00
25468;DHT22;13384;24.794;110.498;2022-12-07T05:02:02;12.20;94.00
25468;DHT22;13384;24.794;110.498;2022-12-07T05:04:34;12.30;94.10
25468;DHT22;13384;24.794;110.498;2022-12-07T05:07:06;12.30;94.10
25468;DHT22;13384;24.794;110.498;2022-12-07T05:09:38;12.30;94.10
25468;DHT22;13384;24.794;110.498;2022-12-07T05:12:08;12.30;94.00
25468;DHT22;13384;24.794;110.498;2022-12-07T05:14:39;12.30;94.00
25468;DHT22;13384;24.794;110.498;2022-12-07T05:17:09;12.30;94.00
25468;DHT22;13384;24.794;110.498;2022-12-07T05:19:41;12.30;94.00
25468;DHT22;13384;24.794;110.498;2022-12-07T05:22:12;12.20;94.00
25468;DHT22;13384;24.794;110.498;2022-12-07T05:24:43;12.20;93.90
25468;DHT22;13384;24.794;110.498;2022-12-07T05:27:15;12.30;94.30
25468;DHT22;13384;24.794;110.498;2022-12-07T05:29:46;12.20;93.90
25468;DHT22;13384;24.794;110.498;2022-12-07T05:32:29;12.20;93.90
25468;DHT22;13384;24.794;110.498;2022-12-07T05:35:00;12.30;94.00
25468;DHT22;13384;24.794;110.498;2022-12-07T05:37:30;12.30;94.00
25468;DHT22;13384;24.794;110.498;2022-12-07T05:40:07;12.20;94.00
25468;DHT22;13384;24.794;110.498;2022-12-07T05:42:37;12.30;94.10
25468;DHT22;13384;24.794;110.498;2022-12-07T05:45:10;12.20;94.00
25468;DHT22;13384;24.794;110.498;2022-12-07T05:47:41;12.20;94.00
25468;DHT22;13384;24.794;110.498;2022-12-07T05:50:11;12.30;94.10
25468;DHT22;13384;24.794;110.498;2022-12-07T05:52:44;12.30;94.10
25468;DHT22;13384;24.794;110.498;2022-12-07T05:55:15;12.30;94.20
25468;DHT22;13384;24.794;110.498;2022-12-07T05:57:46;12.30;94.20
25468;DHT22;13384;24.794;110.498;2022-12-07T06:00:35;12.30;94.20
25468;DHT22;13384;24.794;110.498;2022-12-07T06:03:05;12.30;94.30
25468;DHT22;13384;24.794;110.498;2022-12-07T06:05:36;12.30;94.20
25468;DHT22;13384;24.794;110.498;2022-12-07T06:08:06;12.30;94.20
25468;DHT22;13384;24.794;110.498;2022-12-07T06:10:38;12.30;94.20
25468;DHT22;13384;24.794;110.498;2022-12-07T06:13:11;12.30;94.30
25468;DHT22;13384;24.794;110.498;2022-12-07T06:15:42;12.30;94.30
25468;DHT22;13384;24.794;110.498;2022-12-07T06:18:14;12.30;94.30
25468;DHT22;13384;24.794;110.498;2022-12-07T06:20:45;12.30;94.30
25468;DHT22;13384;24.794;110.498;2022-12-07T06:23:16;12.30;94.70
25468;DHT22;13384;24.794;110.498;2022-12-07T06:25:47;12.30;94.30
25468;DHT22;13384;24.794;110.498;2022-12-07T06:28:18;12.30;94.40
25468;DHT22;13384;24.794;110.498;2022-12-07T06:31:00;12.30;94.30
25468;DHT22;13384;24.794;110.498;2022-12-07T06:33:30;12.30;94.30
25468;DHT22;13384;24.794;110.498;2022-12-07T06:36:02;12.30;94.40
25468;DHT22;13384;24.794;110.498;2022-12-07T06:38:32;12.30;94.30
25468;DHT22;13384;24.794;110.498;2022-12-07T06:41:02;12.30;94.40
25468;DHT22;13384;24.794;110.498;2022-12-07T06:43:33;12.30;94.30
25468;DHT22;13384;24.794;110.498;2022-12-07T06:46:04;12.30;94.40
25468;DHT22;13384;24.794;110.498;2022-12-07T06:48:36;12.30;94.40
25468;DHT22;13384;24.794;110.498;2022-12-07T06:51:07;12.30;94.40
25468;DHT22;13384;24.794;110.498;2022-12-07T06:53:38;12.30;94.40
25468;DHT22;13384;24.794;110.498;2022-12-07T06:56:09;12.40;94.40
25468;DHT22;13384;24.794;110.498;2022-12-07T06:58:41;12.30;94.40
25468;DHT22;13384;24.794;110.498;2022-12-07T07:01:13;12.30;94.40
25468;DHT22;13384;24.794;110.498;2022-12-07T07:03:45;12.40;94.40
25468;DHT22;13384;24.794;110.498;2022-12-07T07:06:15;12.40;94.50
25468;DHT22;13384;24.794;110.498;2022-12-07T07:08:47;12.40;94.50
25468;DHT22;13384;24.794;110.498;2022-12-07T07:11:17;12.40;94.50
25468;DHT22;13384;24.794;110.498;2022-12-07T07:13:49;12.40;94.40
25468;DHT22;13384;24.794;110.498;2022-12-07T07:16:23;12.40;94.40
25468;DHT22;13384;24.794;110.498;2022-12-07T07:18:54;12.40;94.50
25468;DHT22;13384;24.794;110.498;2022-12-07T07:21:26;12.40;94.50
25468;DHT22;13384;24.794;110.498;2022-12-07T07:23:56;12.40;94.50
25468;DHT22;13384;24.794;110.498;2022-12-07T07:26:28;12.40;94.50
25468;DHT22;13384;24.794;110.498;2022-12-07T07:28:59;12.40;94.50
25468;DHT22;13384;24.794;110.498;2022-12-07T07:31:31;12.40;94.70
25468;DHT22;13384;24.794;110.498;2022-12-07T07:34:04;12.40;94.50
25468;DHT22;13384;24.794;110.498;2022-12-07T07:36:35;12.40;94.50
25468;DHT22;13384;24.794;110.498;2022-12-07T07:39:05;12.40;94.50
25468;DHT22;13384;24.794;110.498;2022-12-07T07:41:36;12.40;94.40
25468;DHT22;13384;24.794;110.498;2022-12-07T07:44:13;12.50;94.40
25468;DHT22;13384;24.794;110.498;2022-12-07T07:46:46;12.40;94.40
25468;DHT22;13384;24.794;110.498;2022-12-07T07:49:37;12.50;94.40
25468;DHT22;13384;24.794;110.498;2022-12-07T07:52:15;12.50;94.30
25468;DHT22;13384;24.794;110.498;2022-12-07T07:54:45;12.50;94.40
25468;DHT22;13384;24.794;110.498;2022-12-07T07:57:17;12.50;94.30
25468;DHT22;13384;24.794;110.498;2022-12-07T07:59:50;12.50;94.30
25468;DHT22;13384;24.794;110.498;2022-12-07T08:02:21;12.50;94.30
25468;DHT22;13384;24.794;110.498;2022-12-07T08:04:53;12.50;94.30
25468;DHT22;13384;24.794;110.498;2022-12-07T08:07:24;12.50;94.30
25468;DHT22;13384;24.794;110.498;2022-12-07T08:10:11;12.50;94.30
25468;DHT22;13384;24.794;110.498;2022-12-07T08:12:43;12.50;94.40
25468;DHT22;13384;24.794;110.498;2022-12-07T08:15:33;12.50;94.40
25468;DHT22;13384;24.794;110.498;2022-12-07T08:18:06;12.50;94.40
25468;DHT22;13384;24.794;110.498;2022-12-07T08:20:38;12.50;94.40
25468;DHT22;13384;24.794;110.498;2022-12-07T08:23:12;12.50;94.40
25468;DHT22;13384;24.794;110.498;2022-12-07T08:25:44;12.50;94.40
25468;DHT22;13384;24.794;110.498;2022-12-07T08:28:16;12.50;94.30
25468;DHT22;13384;24.794;110.498;2022-12-07T08:30:46;12.50;94.40
25468;DHT22;13384;24.794;110.498;2022-12-07T08:33:30;12.50;94.30
25468;DHT22;13384;24.794;110.498;2022-12-07T08:36:07;12.50;94.20
25468;DHT22;13384;24.794;110.498;2022-12-07T08:38:40;12.50;94.10
25468;DHT22;13384;24.794;110.498;2022-12-07T08:41:31;12.50;94.20
25468;DHT22;13384;24.794;110.498;2022-12-07T08:44:02;12.50;94.40
25468;DHT22;13384;24.794;110.498;2022-12-07T08:49:36;12.50;94.40
25468;DHT22;13384;24.794;110.498;2022-12-07T08:52:28;12.40;94.40
25468;DHT22;13384;24.794;110.498;2022-12-07T08:55:00;12.50;94.40
25468;DHT22;13384;24.794;110.498;2022-12-07T08:57:33;12.40;94.30
25468;DHT22;13384;24.794;110.498;2022-12-07T09:00:07;12.40;94.30
25468;DHT22;13384;24.794;110.498;2022-12-07T09:02:38;12.40;94.40
25468;DHT22;13384;24.794;110.498;2022-12-07T09:05:08;12.40;94.50
25468;DHT22;13384;24.794;110.498;2022-12-07T09:07:46;12.40;94.50
25468;DHT22;13384;24.794;110.498;2022-12-07T09:10:18;12.40;94.40
25468;DHT22;13384;24.794;110.498;2022-12-07T09:13:01;12.40;94.40
25468;DHT22;13384;24.794;110.498;2022-12-07T09:15:32;12.40;94.30
25468;DHT22;13384;24.794;110.498;2022-12-07T09:18:03;12.40;94.40
25468;DHT22;13384;24.794;110.498;2022-12-07T09:20:33;12.40;94.30
25468;DHT22;13384;24.794;110.498;2022-12-07T09:23:06;12.40;94.50
25468;DHT22;13384;24.794;110.498;2022-12-07T09:25:37;12.40;94.50
25468;DHT22;13384;24.794;110.498;2022-12-07T09:28:09;12.40;94.50
25468;DHT22;13384;24.794;110.498;2022-12-07T09:30:50;12.40;94.50
25468;DHT22;13384;24.794;110.498;2022-12-07T09:33:42;12.40;94.50
25468;DHT22;13384;24.794;110.498;2022-12-07T09:36:13;12.40;94.60
25468;DHT22;13384;24.794;110.498;2022-12-07T09:38:44;12.40;94.50
25468;DHT22;13384;24.794;110.498;2022-12-07T09:41:18;12.40;94.30
25468;DHT22;13384;24.794;110.498;2022-12-07T09:43:50;12.40;94.50
25468;DHT22;13384;24.794;110.498;2022-12-07T09:46:22;12.40;94.60
25468;DHT22;13384;24.794;110.498;2022-12-07T09:48:52;12.40;94.60
25468;DHT22;13384;24.794;110.498;2022-12-07T09:51:24;12.40;94.60
25468;DHT22;13384;24.794;110.498;2022-12-07T09:53:58;12.40;94.60
25468;DHT22;13384;24.794;110.498;2022-12-07T09:56:33;12.40;94.60
25468;DHT22;13384;24.794;110.498;2022-12-07T09:59:04;12.40;94.70
25468;DHT22;13384;24.794;110.498;2022-12-07T10:01:35;12.40;94.70
25468;DHT22;13384;24.794;110.498;2022-12-07T10:04:12;12.30;94.60
25468;DHT22;13384;24.794;110.498;2022-12-07T10:06:46;12.40;94.60
25468;DHT22;13384;24.794;110.498;2022-12-07T10:09:20;12.40;94.70
25468;DHT22;13384;24.794;110.498;2022-12-07T10:12:08;12.40;94.70
25468;DHT22;13384;24.794;110.498;2022-12-07T10:14:52;12.40;94.70
25468;DHT22;13384;24.794;110.498;2022-12-07T10:23:03;12.30;94.40
25468;DHT22;13384;24.794;110.498;2022-12-07T10:25:36;12.40;94.70
25468;DHT22;13384;24.794;110.498;2022-12-07T10:31:05;12.40;94.70
25468;DHT22;13384;24.794;110.498;2022-12-07T10:33:57;12.40;94.70
25468;DHT22;13384;24.794;110.498;2022-12-07T10:36:38;12.40;94.80
25468;DHT22;13384;24.794;110.498;2022-12-07T10:39:13;12.40;95.10
25468;DHT22;13384;24.794;110.498;2022-12-07T10:42:02;12.40;94.80
25468;DHT22;13384;24.794;110.498;2022-12-07T10:44:33;12.40;94.80
25468;DHT22;13384;24.794;110.498;2022-12-07T10:52:45;12.30;94.80
25468;DHT22;13384;24.794;110.498;2022-12-07T11:11:59;12.30;94.80
25468;DHT22;13384;24.794;110.498;2022-12-07T11:14:51;12.40;94.80
25468;DHT22;13384;24.794;110.498;2022-12-07T11:26:09;12.30;94.80
25468;DHT22;13384;24.794;110.498;2022-12-07T11:32:22;12.30;94.90
25468;DHT22;13384;24.794;110.498;2022-12-07T11:37:35;12.40;94.90
25468;DHT22;13384;24.794;110.498;2022-12-07T11:40:33;12.30;94.90
25468;DHT22;13384;24.794;110.498;2022-12-07T11:43:27;12.40;94.90
25468;DHT22;13384;24.794;110.498;2022-12-07T11:46:15;12.40;94.90
25468;DHT22;13384;24.794;110.498;2022-12-07T11:49:37;12.40;94.90
25468;DHT22;13384;24.794;110.498;2022-12-07T11:55:00;12.40;94.90
25468;DHT22;13384;24.794;110.498;2022-12-07T11:57:43;12.40;94.90
25468;DHT22;13384;24.794;110.498;2022-12-07T12:00:16;12.40;95.00
25468;DHT22;13384;24.794;110.498;2022-12-07T12:03:26;12.40;94.90
25468;DHT22;13384;24.794;110.498;2022-12-07T12:06:04;12.40;94.90
25468;DHT22;13384;24.794;110.498;2022-12-07T12:08:50;12.40;94.90
25468;DHT22;13384;24.794;110.498;2022-12-07T12:12:01;12.40;95.00
25468;DHT22;13384;24.794;110.498;2022-12-07T12:17:36;12.40;95.00
25468;DHT22;13384;24.794;110.498;2022-12-07T12:20:32;12.40;95.00
25468;DHT22;13384;24.794;110.498;2022-12-07T12:25:59;12.40;95.00
25468;DHT22;13384;24.794;110.498;2022-12-07T12:29:02;12.30;95.00
25468;DHT22;13384;24.794;110.498;2022-12-07T12:31:41;12.40;95.00
25468;DHT22;13384;24.794;110.498;2022-12-07T12:34:37;12.40;95.00
25468;DHT22;13384;24.794;110.498;2022-12-07T12:42:54;12.40;95.00
25468;DHT22;13384;24.794;110.498;2022-12-07T12:45:31;12.40;95.00
25468;DHT22;13384;24.794;110.498;2022-12-07T12:48:28;12.40;95.00
25468;DHT22;13384;24.794;110.498;2022-12-07T12:51:38;12.40;95.00
25468;DHT22;13384;24.794;110.498;2022-12-07T12:54:18;12.40;95.00
25468;DHT22;13384;24.794;110.498;2022-12-07T13:07:53;12.40;95.00
25468;DHT22;13384;24.794;110.498;2022-12-07T13:29:11;12.40;95.10
25468;DHT22;13384;24.794;110.498;2022-12-07T13:31:50;12.40;95.00
25468;DHT22;13384;24.794;110.498;2022-12-07T13:34:40;12.40;95.10
25468;DHT22;13384;24.794;110.498;2022-12-07T13:37:29;12.40;95.10
25468;DHT22;13384;24.794;110.498;2022-12-07T13:40:18;12.40;95.10
25468;DHT22;13384;24.794;110.498;2022-12-07T13:42:58;12.40;95.10
25468;DHT22;13384;24.794;110.498;2022-12-07T13:45:32;12.40;95.10
25468;DHT22;13384;24.794;110.498;2022-12-07T13:48:35;12.30;95.00
25468;DHT22;13384;24.794;110.498;2022-12-07T13:51:26;12.30;95.10
25468;DHT22;13384;24.794;110.498;2022-12-07T13:54:13;12.30;95.50
25468;DHT22;13384;24.794;110.498;2022-12-07T13:56:49;12.30;95.20
25468;DHT22;13384;24.794;110.498;2022-12-07T13:59:23;12.40;95.20
25468;DHT22;13384;24.794;110.498;2022-12-07T14:01:54;12.30;95.10
25468;DHT22;13384;24.794;110.498;2022-12-07T14:04:37;12.40;95.10
25468;DHT22;13384;24.794;110.498;2022-12-07T14:07:25;12.30;95.10
25468;DHT22;13384;24.794;110.498;2022-12-07T14:10:00;12.30;95.10
25468;DHT22;13384;24.794;110.498;2022-12-07T14:12:32;12.40;95.10
25468;DHT22;13384;24.794;110.498;2022-12-07T14:15:26;12.40;95.20
25468;DHT22;13384;24.794;110.498;2022-12-07T14:17:59;12.30;95.10
25468;DHT22;13384;24.794;110.498;2022-12-07T14:20:40;12.40;95.10
25468;DHT22;13384;24.794;110.498;2022-12-07T14:23:24;12.30;95.10
25468;DHT22;13384;24.794;110.498;2022-12-07T14:26:14;12.40;95.20
25468;DHT22;13384;24.794;110.498;2022-12-07T14:28:46;12.40;95.20
25468;DHT22;13384;24.794;110.498;2022-12-07T14:31:23;12.40;95.50
25468;DHT22;13384;24.794;110.498;2022-12-07T14:34:01;12.40;95.20
25468;DHT22;13384;24.794;110.498;2022-12-07T14:36:32;12.40;95.20
25468;DHT22;13384;24.794;110.498;2022-12-07T14:39:02;12.30;95.20
25468;DHT22;13384;24.794;110.498;2022-12-07T14:41:42;12.40;95.20
25468;DHT22;13384;24.794;110.498;2022-12-07T14:44:23;12.40;95.20
25468;DHT22;13384;24.794;110.498;2022-12-07T14:47:03;12.40;95.20
25468;DHT22;13384;24.794;110.498;2022-12-07T14:49:53;12.40;95.20
25468;DHT22;13384;24.794;110.498;2022-12-07T14:52:30;12.40;95.20
25468;DHT22;13384;24.794;110.498;2022-12-07T14:55:28;12.30;95.20
25468;DHT22;13384;24.794;110.498;2022-12-07T14:58:00;12.40;95.20
25468;DHT22;13384;24.794;110.498;2022-12-07T15:00:31;12.40;95.20
25468;DHT22;13384;24.794;110.498;2022-12-07T15:03:02;12.40;95.20
25468;DHT22;13384;24.794;110.498;2022-12-07T15:05:34;12.40;95.20
25468;DHT22;13384;24.794;110.498;2022-12-07T15:08:08;12.40;95.20
25468;DHT22;13384;24.794;110.498;2022-12-07T15:10:39;12.40;95.20
25468;DHT22;13384;24.794;110.498;2022-12-07T15:13:10;12.40;95.20
25468;DHT22;13384;24.794;110.498;2022-12-07T15:15:59;12.40;95.20
25468;DHT22;13384;24.794;110.498;2022-12-07T15:18:30;12.40;95.20
25468;DHT22;13384;24.794;110.498;2022-12-07T15:21:01;12.40;95.20
25468;DHT22;13384;24.794;110.498;2022-12-07T15:23:36;12.40;95.20
25468;DHT22;13384;24.794;110.498;2022-12-07T15:26:10;12.40;95.20
25468;DHT22;13384;24.794;110.498;2022-12-07T15:28:41;12.30;95.20
25468;DHT22;13384;24.794;110.498;2022-12-07T15:31:15;12.30;95.20
25468;DHT22;13384;24.794;110.498;2022-12-07T15:34:06;12.30;95.30
25468;DHT22;13384;24.794;110.498;2022-12-07T15:36:37;12.30;95.30
25468;DHT22;13384;24.794;110.498;2022-12-07T15:39:08;12.30;95.30
25468;DHT22;13384;24.794;110.498;2022-12-07T15:41:42;12.40;95.20
25468;DHT22;13384;24.794;110.498;2022-12-07T15:44:32;12.30;95.10
25468;DHT22;13384;24.794;110.498;2022-12-07T15:47:21;12.30;95.30
25468;DHT22;13384;24.794;110.498;2022-12-07T15:49:57;12.30;95.10
25468;DHT22;13384;24.794;110.498;2022-12-07T15:52:28;12.30;95.30
25468;DHT22;13384;24.794;110.498;2022-12-07T15:55:00;12.30;95.30
25468;DHT22;13384;24.794;110.498;2022-12-07T15:57:34;12.30;95.10
25468;DHT22;13384;24.794;110.498;2022-12-07T16:00:08;12.30;95.20
25468;DHT22;13384;24.794;110.498;2022-12-07T16:02:39;12.30;95.20
25468;DHT22;13384;24.794;110.498;2022-12-07T16:05:09;12.20;95.30
25468;DHT22;13384;24.794;110.498;2022-12-07T16:07:41;12.30;95.20
25468;DHT22;13384;24.794;110.498;2022-12-07T16:10:11;12.30;95.30
25468;DHT22;13384;24.794;110.498;2022-12-07T16:12:50;12.20;95.20
25468;DHT22;13384;24.794;110.498;2022-12-07T16:15:42;12.20;95.20
25468;DHT22;13384;24.794;110.498;2022-12-07T16:18:16;12.20;95.30
25468;DHT22;13384;24.794;110.498;2022-12-07T16:20:51;12.30;95.30
25468;DHT22;13384;24.794;110.498;2022-12-07T16:23:24;12.30;95.30
25468;DHT22;13384;24.794;110.498;2022-12-07T16:26:04;12.30;95.20
25468;DHT22;13384;24.794;110.498;2022-12-07T16:28:36;12.30;95.20
25468;DHT22;13384;24.794;110.498;2022-12-07T16:31:14;12.40;95.20
25468;DHT22;13384;24.794;110.498;2022-12-07T16:33:45;12.30;95.20
25468;DHT22;13384;24.794;110.498;2022-12-07T16:36:17;12.30;95.10
25468;DHT22;13384;24.794;110.498;2022-12-07T16:39:08;12.30;95.30
25468;DHT22;13384;24.794;110.498;2022-12-07T16:41:38;12.30;95.20
25468;DHT22;13384;24.794;110.498;2022-12-07T16:44:11;12.30;95.30
25468;DHT22;13384;24.794;110.498;2022-12-07T16:46:50;12.30;95.30
25468;DHT22;13384;24.794;110.498;2022-12-07T16:49:21;12.30;95.30
25468;DHT22;13384;24.794;110.498;2022-12-07T16:51:56;12.30;95.30
25468;DHT22;13384;24.794;110.498;2022-12-07T16:54:48;12.30;95.10
25468;DHT22;13384;24.794;110.498;2022-12-07T16:57:19;12.30;95.30
25468;DHT22;13384;24.794;110.498;2022-12-07T16:59:52;12.30;95.20
25468;DHT22;13384;24.794;110.498;2022-12-07T17:02:23;12.30;95.10
25468;DHT22;13384;24.794;110.498;2022-12-07T17:05:14;12.30;95.10
25468;DHT22;13384;24.794;110.498;2022-12-07T17:07:45;12.30;95.30
25468;DHT22;13384;24.794;110.498;2022-12-07T17:10:15;12.30;95.20
25468;DHT22;13384;24.794;110.498;2022-12-07T17:12:49;12.30;95.20
25468;DHT22;13384;24.794;110.498;2022-12-07T17:15:20;12.30;95.20
25468;DHT22;13384;24.794;110.498;2022-12-07T17:17:57;12.30;95.60
25468;DHT22;13384;24.794;110.498;2022-12-07T17:20:28;12.30;95.10
25468;DHT22;13384;24.794;110.498;2022-12-07T17:23:04;12.40;95.30
25468;DHT22;13384;24.794;110.498;2022-12-07T17:25:34;12.30;95.20
25468;DHT22;13384;24.794;110.498;2022-12-07T17:28:04;12.30;95.20
25468;DHT22;13384;24.794;110.498;2022-12-07T17:30:35;12.30;95.30
25468;DHT22;13384;24.794;110.498;2022-12-07T17:33:07;12.30;95.30
25468;DHT22;13384;24.794;110.498;2022-12-07T17:35:38;12.30;95.20
25468;DHT22;13384;24.794;110.498;2022-12-07T17:38:11;12.30;95.30
25468;DHT22;13384;24.794;110.498;2022-12-07T17:40:45;12.30;95.30
25468;DHT22;13384;24.794;110.498;2022-12-07T17:43:19;12.30;95.30
25468;DHT22;13384;24.794;110.498;2022-12-07T17:45:50;12.30;95.30
25468;DHT22;13384;24.794;110.498;2022-12-07T17:48:20;12.40;95.30
25468;DHT22;13384;24.794;110.498;2022-12-07T17:50:51;12.30;95.30
25468;DHT22;13384;24.794;110.498;2022-12-07T17:53:39;12.30;95.30
25468;DHT22;13384;24.794;110.498;2022-12-07T17:56:11;12.40;95.30
25468;DHT22;13384;24.794;110.498;2022-12-07T17:58:56;12.30;95.20
25468;DHT22;13384;24.794;110.498;2022-12-07T18:01:27;12.30;95.30
25468;DHT22;13384;24.794;110.498;2022-12-07T18:04:03;12.30;95.20
25468;DHT22;13384;24.794;110.498;2022-12-07T18:06:34;12.30;95.40